createdAt,value
2022-10-07T00:00:58.128Z,14.13
2022-10-07T00:03:26.884Z,14.40
2022-10-07T00:06:01.925Z,12.75
2022-10-07T00:08:29.947Z,12.77
2022-10-07T00:10:57.834Z,13.35
2022-10-07T00:13:25.843Z,11.52
2022-10-07T00:15:53.633Z,14.73
2022-10-07T00:18:22.970Z,14.15
2022-10-07T00:20:50.808Z,13.68
2022-10-07T00:23:18.734Z,13.57
2022-10-07T00:25:46.545Z,14.13
2022-10-07T00:28:14.369Z,13.70
2022-10-07T00:30:42.361Z,14.55
2022-10-07T00:33:11.792Z,14.18
2022-10-07T00:35:41.026Z,11.98
2022-10-07T00:38:08.793Z,13.88
2022-10-07T00:40:36.779Z,12.73
2022-10-07T00:43:19.395Z,11.98
2022-10-07T00:45:47.428Z,13.73
2022-10-07T00:48:16.686Z,12.00
2022-10-07T00:50:48.277Z,11.52
2022-10-07T00:53:17.659Z,12.70
2022-10-07T00:55:45.620Z,12.90
2022-10-07T00:58:13.796Z,12.05
2022-10-07T01:00:41.639Z,11.68
2022-10-07T01:03:09.427Z,11.30
2022-10-07T01:08:06.196Z,11.43
2022-10-07T01:10:36.920Z,11.05
2022-10-07T01:13:08.726Z,11.10
2022-10-07T01:15:39.504Z,11.32
2022-10-07T01:18:10.294Z,10.52
2022-10-07T01:20:45.354Z,11.93
2022-10-07T01:23:31.202Z,11.80
2022-10-07T01:26:05.185Z,12.18
2022-10-07T01:28:37.968Z,10.82
2022-10-07T01:31:08.304Z,10.68
2022-10-07T01:33:36.860Z,10.95
2022-10-07T01:36:08.218Z,11.43
2022-10-07T01:38:36.757Z,11.15
2022-10-07T01:41:08.127Z,11.50
2022-10-07T01:43:38.510Z,10.15
2022-10-07T01:46:09.021Z,11.30
2022-10-07T01:48:37.288Z,10.95
2022-10-07T01:51:08.051Z,12.43
2022-10-07T01:53:41.088Z,11.57
2022-10-07T01:56:17.376Z,11.70
2022-10-07T01:58:54.461Z,10.80
2022-10-07T02:01:27.071Z,10.88
2022-10-07T02:04:07.194Z,11.52
2022-10-07T02:06:39.451Z,10.50
2022-10-07T02:09:12.335Z,10.60
2022-10-07T02:11:42.401Z,10.77
2022-10-07T02:14:15.170Z,10.55
2022-10-07T02:16:44.875Z,10.60
2022-10-07T02:19:15.523Z,10.38
2022-10-07T02:21:44.524Z,10.95
2022-10-07T02:24:13.913Z,10.35
2022-10-07T02:26:43.124Z,10.40
2022-10-07T02:29:13.747Z,10.70
2022-10-07T02:31:43.370Z,11.07
2022-10-07T02:34:19.713Z,10.75
2022-10-07T02:36:51.227Z,9.98
2022-10-07T02:39:19.221Z,11.32
2022-10-07T02:41:50.493Z,10.82
2022-10-07T02:44:29.315Z,10.70
2022-10-07T02:47:00.246Z,10.75
2022-10-07T02:49:29.553Z,10.63
2022-10-07T02:51:59.366Z,10.77
2022-10-07T02:54:32.013Z,10.85
2022-10-07T02:57:01.198Z,11.52
2022-10-07T02:59:31.569Z,10.23
2022-10-07T03:02:00.989Z,10.82
2022-10-07T03:04:29.293Z,10.30
2022-10-07T03:06:58.815Z,9.95
2022-10-07T03:09:27.028Z,10.93
2022-10-07T03:11:55.303Z,10.20
2022-10-07T03:14:24.829Z,10.20
2022-10-07T03:16:54.475Z,10.40
2022-10-07T03:19:22.557Z,10.68
2022-10-07T03:21:54.057Z,9.88
2022-10-07T03:24:22.037Z,11.77
2022-10-07T03:26:51.195Z,10.48
2022-10-07T03:29:20.050Z,12.43
2022-10-07T03:31:47.953Z,12.73
2022-10-07T03:34:17.354Z,13.20
2022-10-07T03:36:48.305Z,11.45
2022-10-07T03:39:17.184Z,11.70
2022-10-07T03:41:45.576Z,11.80
2022-10-07T03:44:14.690Z,11.70
2022-10-07T03:46:42.908Z,12.82
2022-10-07T03:49:11.134Z,12.65
2022-10-07T03:51:40.442Z,11.57
2022-10-07T03:54:09.992Z,11.40
2022-10-07T03:56:39.707Z,10.85
2022-10-07T03:59:07.503Z,10.77
2022-10-07T04:01:35.793Z,11.32
2022-10-07T04:04:03.943Z,10.80
2022-10-07T04:06:35.908Z,11.40
2022-10-07T04:09:09.784Z,11.63
2022-10-07T04:11:40.608Z,11.82
2022-10-07T04:14:09.605Z,11.60
2022-10-07T04:16:40.767Z,11.52
2022-10-07T04:19:11.767Z,11.98
2022-10-07T04:21:40.115Z,11.20
2022-10-07T04:24:09.523Z,13.00
2022-10-07T04:26:38.422Z,13.32
2022-10-07T04:29:06.748Z,13.18
2022-10-07T04:31:34.827Z,12.77
2022-10-07T04:34:05.733Z,13.27
2022-10-07T04:36:40.846Z,14.50
2022-10-07T04:39:14.547Z,13.38
2022-10-07T04:41:49.472Z,23.63
2022-10-07T04:44:22.252Z,19.42
2022-10-07T04:47:00.163Z,15.70
2022-10-07T04:49:30.824Z,12.65
2022-10-07T04:52:00.694Z,12.15
2022-10-07T04:54:35.752Z,13.20
2022-10-07T04:57:03.774Z,12.50
2022-10-07T04:59:33.731Z,12.43
2022-10-07T05:02:02.900Z,12.60
2022-10-07T05:04:33.777Z,13.93
2022-10-07T05:07:03.139Z,11.75
2022-10-07T05:09:32.443Z,11.98
2022-10-07T05:12:02.608Z,12.00
2022-10-07T05:14:32.857Z,13.00
2022-10-07T05:17:01.251Z,13.38
2022-10-07T05:19:34.023Z,14.32
2022-10-07T05:22:03.075Z,11.75
2022-10-07T05:24:32.181Z,12.50
2022-10-07T05:27:03.424Z,11.32
2022-10-07T05:29:31.396Z,11.77
2022-10-07T05:34:32.527Z,12.95
2022-10-07T05:37:00.793Z,11.82
2022-10-07T05:39:28.867Z,11.77
2022-10-07T05:42:05.077Z,12.43
2022-10-07T05:44:39.616Z,12.45
2022-10-07T05:47:07.872Z,11.82
2022-10-07T05:49:36.664Z,12.77
2022-10-07T05:52:05.821Z,12.43
2022-10-07T05:54:34.598Z,12.45
2022-10-07T05:57:04.986Z,11.85
2022-10-07T05:59:34.304Z,13.40
2022-10-07T06:02:02.478Z,12.65
2022-10-07T06:04:31.378Z,12.32
2022-10-07T06:06:59.446Z,11.38
2022-10-07T06:09:46.473Z,12.07
2022-10-07T06:12:36.862Z,14.43
2022-10-07T06:15:10.225Z,13.40
2022-10-07T06:17:42.737Z,12.63
2022-10-07T06:20:14.264Z,12.60
2022-10-07T06:22:43.114Z,12.48
2022-10-07T06:25:11.343Z,12.50
2022-10-07T06:27:40.786Z,11.63
2022-10-07T06:30:09.483Z,11.32
2022-10-07T06:32:37.423Z,12.07
2022-10-07T06:35:06.188Z,12.45
2022-10-07T06:37:34.278Z,11.43
2022-10-07T06:40:02.718Z,11.63
2022-10-07T06:42:33.688Z,12.10
2022-10-07T06:45:28.316Z,12.07
2022-10-07T06:47:58.977Z,13.10
2022-10-07T06:50:27.197Z,12.60
2022-10-07T06:52:55.157Z,11.48
2022-10-07T06:55:23.214Z,11.93
2022-10-07T06:57:51.051Z,12.65
2022-10-07T07:00:20.756Z,13.15
2022-10-07T07:02:50.967Z,14.35
2022-10-07T07:05:20.225Z,11.70
2022-10-07T07:07:49.215Z,12.77
2022-10-07T07:10:17.735Z,14.57
2022-10-07T07:12:49.256Z,13.95
2022-10-07T07:15:18.193Z,13.27
2022-10-07T07:17:46.389Z,12.80
2022-10-07T07:20:16.113Z,14.85
2022-10-07T07:22:44.241Z,17.40
2022-10-07T07:25:12.494Z,13.52
2022-10-07T07:27:41.224Z,13.48
2022-10-07T07:30:11.083Z,11.40
2022-10-07T07:32:39.655Z,11.23
2022-10-07T07:35:09.198Z,11.93
2022-10-07T07:37:38.676Z,12.98
2022-10-07T07:40:06.877Z,13.75
2022-10-07T07:42:34.950Z,13.80
2022-10-07T07:45:03.098Z,12.98
2022-10-07T07:47:32.689Z,14.18
2022-10-07T07:50:01.122Z,13.05
2022-10-07T07:52:32.589Z,11.55
2022-10-07T07:55:03.561Z,11.88
2022-10-07T07:57:33.137Z,12.95
2022-10-07T08:00:05.346Z,11.00
2022-10-07T08:02:41.879Z,10.95
2022-10-07T08:05:13.524Z,9.77
2022-10-07T08:07:41.814Z,9.60
2022-10-07T08:10:12.828Z,11.48
2022-10-07T08:12:41.556Z,10.23
2022-10-07T08:15:10.900Z,9.23
2022-10-07T08:17:39.575Z,9.80
2022-10-07T08:20:10.826Z,10.00
2022-10-07T08:22:39.764Z,9.38
2022-10-07T08:25:08.161Z,9.77
2022-10-07T08:27:37.767Z,9.35
2022-10-07T08:30:07.248Z,8.98
2022-10-07T08:32:35.247Z,9.75
2022-10-07T08:35:02.990Z,9.55
2022-10-07T08:37:31.682Z,10.68
2022-10-07T08:39:59.588Z,10.68
2022-10-07T08:42:31.747Z,8.85
2022-10-07T08:45:01.250Z,9.98
2022-10-07T08:47:31.543Z,10.52
2022-10-07T08:50:04.543Z,8.88
2022-10-07T08:52:36.652Z,10.23
2022-10-07T08:55:05.427Z,9.77
2022-10-07T08:57:45.925Z,9.27
2022-10-07T09:00:18.168Z,9.27
2022-10-07T09:03:07.520Z,10.25
2022-10-07T09:05:36.634Z,8.50
2022-10-07T09:08:06.141Z,7.47
2022-10-07T09:10:37.323Z,8.80
2022-10-07T09:13:08.130Z,8.93
2022-10-07T09:15:41.418Z,8.23
2022-10-07T09:18:14.091Z,8.02
2022-10-07T09:20:44.798Z,7.25
2022-10-07T09:23:15.499Z,6.75
2022-10-07T09:25:44.556Z,7.63
2022-10-07T09:28:17.501Z,6.15
2022-10-07T09:30:46.774Z,7.20
2022-10-07T09:33:16.253Z,6.35
2022-10-07T09:35:47.398Z,6.97
2022-10-07T09:38:15.464Z,6.38
2022-10-07T09:40:59.243Z,6.30
2022-10-07T09:43:27.826Z,6.63
2022-10-07T09:45:58.240Z,6.43
2022-10-07T09:48:28.024Z,4.88
2022-10-07T09:51:10.674Z,5.70
2022-10-07T09:53:48.697Z,5.90
2022-10-07T09:58:44.312Z,4.90
2022-10-07T10:01:14.307Z,5.50
2022-10-07T10:03:42.354Z,4.78
2022-10-07T10:06:10.639Z,4.45
2022-10-07T10:08:39.863Z,3.88
2022-10-07T10:11:08.750Z,4.30
2022-10-07T10:13:37.883Z,3.65
2022-10-07T10:16:07.221Z,3.92
2022-10-07T10:18:40.605Z,4.05
2022-10-07T10:21:20.894Z,4.20
2022-10-07T10:23:49.973Z,3.90
2022-10-07T10:26:33.365Z,3.75
2022-10-07T10:29:12.778Z,3.33
2022-10-07T10:31:46.791Z,3.35
2022-10-07T10:34:24.481Z,3.90
2022-10-07T10:36:54.730Z,3.10
2022-10-07T10:39:28.349Z,3.10
2022-10-07T10:41:58.126Z,3.40
2022-10-07T10:44:33.605Z,3.47
2022-10-07T10:47:05.114Z,2.88
2022-10-07T10:49:36.989Z,3.17
2022-10-07T10:52:13.605Z,3.65
2022-10-07T10:54:46.453Z,3.33
2022-10-07T10:57:19.312Z,3.35
2022-10-07T10:59:55.730Z,3.70
2022-10-07T11:02:38.500Z,4.22
2022-10-07T11:05:15.021Z,3.80
2022-10-07T11:07:45.413Z,4.53
2022-10-07T11:10:19.033Z,4.25
2022-10-07T11:12:48.656Z,3.22
2022-10-07T11:15:19.717Z,3.55
2022-10-07T11:17:50.684Z,3.88
2022-10-07T11:20:21.671Z,3.80
2022-10-07T11:22:52.687Z,3.83
2022-10-07T11:25:25.697Z,4.00
2022-10-07T11:27:55.592Z,3.63
2022-10-07T11:30:24.378Z,3.65
2022-10-07T11:32:56.105Z,3.42
2022-10-07T11:35:29.336Z,7.72
2022-10-07T11:38:00.725Z,3.17
2022-10-07T11:40:30.405Z,3.15
2022-10-07T11:43:00.445Z,4.35
2022-10-07T11:45:31.782Z,3.28
2022-10-07T11:48:01.100Z,3.50
2022-10-07T11:50:32.495Z,3.58
2022-10-07T11:53:03.470Z,3.30
2022-10-07T11:55:34.707Z,3.78
2022-10-07T11:58:04.086Z,3.42
2022-10-07T12:00:33.233Z,3.47
2022-10-07T12:03:11.987Z,4.45
2022-10-07T12:05:59.071Z,4.55
2022-10-07T12:08:34.417Z,4.25
2022-10-07T12:11:22.712Z,4.18
2022-10-07T12:13:51.669Z,3.97
2022-10-07T12:16:38.171Z,4.40
2022-10-07T12:19:23.817Z,2.90
2022-10-07T12:22:10.550Z,4.32
2022-10-07T12:24:45.969Z,3.00
2022-10-07T12:27:17.644Z,4.07
2022-10-07T12:29:58.932Z,3.72
2022-10-07T12:32:45.861Z,3.38
2022-10-07T12:35:51.465Z,3.85
2022-10-07T12:38:26.449Z,3.90
2022-10-07T12:41:27.440Z,3.70
2022-10-07T12:44:00.116Z,4.10
2022-10-07T12:46:30.555Z,4.28
2022-10-07T12:49:00.820Z,4.13
2022-10-07T12:51:30.611Z,3.97
2022-10-07T12:53:59.996Z,4.05
2022-10-07T12:56:29.207Z,4.15
2022-10-07T12:59:24.663Z,3.30
2022-10-07T13:02:08.410Z,3.35
2022-10-07T13:04:51.550Z,3.30
2022-10-07T13:07:34.008Z,3.08
2022-10-07T13:10:18.576Z,3.53
2022-10-07T13:12:51.607Z,3.05
2022-10-07T13:15:31.496Z,3.13
2022-10-07T13:18:07.290Z,4.15
2022-10-07T13:20:40.355Z,3.78
2022-10-07T13:23:16.004Z,3.08
2022-10-07T13:25:45.078Z,3.55
2022-10-07T13:28:15.041Z,4.65
2022-10-07T13:30:45.445Z,4.20
2022-10-07T13:33:20.577Z,3.30
2022-10-07T13:35:48.417Z,4.35
2022-10-07T13:38:28.848Z,3.40
2022-10-07T13:41:00.181Z,4.13
2022-10-07T13:43:29.433Z,3.38
2022-10-07T13:45:59.547Z,3.55
2022-10-07T13:48:28.918Z,14.63
